Ubc Bremen — P3ZA7 — position and weather

sailwx.info

Track history (hours):
 
Tides and Currents Weather Stations Pressure Air Temp Water Temp Dewpoint Dewpoint Depression Visibility Wind Speed Wind Dir Waves Ship Positions

Ubc Bremen

Last reported at 2017-Nov-20 00:30 UTC. Time now 2017-Nov-22 05:31 UTC.
Position N 19°17' W 095°48'.

Length 154 m; draft 8.8 m.

Type: Cargo ship. MMSI: 21260200.

Date/timePositionNaut miles runAvg speedWind from/ knotsBaromVisibWave heightAir tempDewpointWater temp
2017-Nov-20 00:30N 19°17' W 095°48'1 2.4
2017-Nov-20 00:00N 19°17' W 095°47'1 2.6
2017-Nov-19 23:30N 19°17' W 095°45'1 2.9
2017-Nov-19 23:00N 19°17' W 095°44'3 1.5
2017-Nov-19 20:45N 19°17' W 095°47'1 2.5
2017-Nov-19 20:18N 19°17' W 095°48'1 2.4
2017-Nov-19 20:00N 19°18' W 095°48'1 1.6
2017-Nov-19 19:30N 19°19' W 095°49'1 2.5
2017-Nov-19 19:00N 19°18' W 095°50'1 1.6
2017-Nov-19 18:30N 19°19' W 095°50'1 1.3
2017-Nov-19 18:00N 19°19' W 095°51'4 8.3
2017-Nov-19 17:30N 19°19' W 095°55'4 7.3
2017-Nov-19 17:00N 19°16' W 095°57'4 8.7
2017-Nov-19 16:30N 19°12' W 095°60'4 8.2
2017-Nov-19 16:00N 19°09' W 096°02'0 0.5
2017-Nov-19 15:26N 19°09' W 096°02'0 0.0
2017-Nov-19 14:50N 19°09' W 096°02'0 0.0
2017-Nov-19 14:26N 19°09' W 096°03'0 0.0
2017-Nov-19 13:44N 19°09' W 096°03'0 0.0
2017-Nov-19 13:26N 19°09' W 096°03'0 0.0
2017-Nov-19 12:55N 19°09' W 096°03'0 0.0
2017-Nov-19 12:19N 19°09' W 096°03'0 0.1
2017-Nov-19 11:55N 19°09' W 096°03'0 0.0
2017-Nov-19 11:19N 19°09' W 096°02'0 0.0
2017-Nov-19 10:55N 19°09' W 096°02'0 0.0
2017-Nov-19 10:25N 19°09' W 096°02'0 0.0
2017-Nov-19 09:55N 19°09' W 096°02'0 0.0
2017-Nov-19 09:25N 19°09' W 096°02'0 0.0
2017-Nov-19 09:01N 19°09' W 096°02'0 0.1
2017-Nov-19 08:25N 19°09' W 096°02'0 0.1
2017-Nov-19 08:01N 19°09' W 096°02'0 0.0
2017-Nov-19 07:30N 19°09' W 096°02'0 0.0
2017-Nov-19 07:01N 19°09' W 096°02'0 0.0
2017-Nov-19 06:25N 19°09' W 096°02'0 0.0
2017-Nov-19 06:01N 19°09' W 096°02'0 0.0
2017-Nov-19 05:30N 19°09' W 096°02'0 0.0
2017-Nov-19 05:00N 19°09' W 096°02'0 0.0
2017-Nov-19 04:30N 19°09' W 096°02'0 0.0
2017-Nov-19 04:00N 19°09' W 096°02'0 0.0
2017-Nov-19 02:50N 19°09' W 096°02'0 0.0
2017-Nov-19 02:14N 19°09' W 096°02'0 0.0
2017-Nov-19 01:43N 19°09' W 096°02'0 0.0
2017-Nov-19 01:22N 19°09' W 096°02'0 0.0
2017-Nov-19 00:49N 19°09' W 096°02'0 0.0
2017-Nov-19 00:25N 19°09' W 096°02'0 0.0
2017-Nov-18 23:55N 19°09' W 096°02'0 0.0
2017-Nov-18 23:25N 19°09' W 096°02'0 0.0
2017-Nov-18 22:49N 19°09' W 096°02'0 0.0
2017-Nov-18 22:25N 19°09' W 096°02'0 0.0
2017-Nov-18 21:55N 19°09' W 096°02'0 0.0
2017-Nov-18 21:25N 19°09' W 096°02'0 0.0
2017-Nov-18 20:49N 19°09' W 096°02'0 0.0
2017-Nov-18 20:07N 19°09' W 096°02'0 0.0
2017-Nov-18 19:49N 19°09' W 096°02'0 0.0
2017-Nov-18 19:25N 19°09' W 096°02'0 0.1
2017-Nov-18 18:49N 19°09' W 096°02'0 0.0
2017-Nov-18 18:25N 19°09' W 096°02'0 0.0
2017-Nov-18 17:55N 19°09' W 096°02'0 0.0
2017-Nov-18 17:25N 19°09' W 096°02'0 0.0
2017-Nov-18 16:55N 19°09' W 096°02'0 0.0
2017-Nov-18 16:30N 19°09' W 096°02'0 0.0
2017-Nov-18 15:58N 19°09' W 096°02'0 0.0
2017-Nov-18 15:18N 19°09' W 096°02'0 0.0
2017-Nov-18 15:00N 19°09' W 096°02'0 0.1
2017-Nov-18 14:30N 19°09' W 096°02'0 0.1
2017-Nov-18 13:58N 19°09' W 096°02'0 0.1
2017-Nov-18 13:06N 19°09' W 096°02'0 0.1
2017-Nov-18 12:54N 19°09' W 096°02'0 0.0
2017-Nov-18 12:12N 19°09' W 096°02'0 0.1
2017-Nov-18 11:54N 19°09' W 096°02'0 0.2
2017-Nov-18 11:24N 19°09' W 096°02'0 0.1
2017-Nov-18 11:00N 19°09' W 096°02'0 0.0
2017-Nov-18 10:30N 19°09' W 096°02'0 0.0
2017-Nov-18 09:54N 19°09' W 096°02'0 0.1
2017-Nov-18 09:24N 19°09' W 096°02'0 0.1
2017-Nov-18 09:00N 19°09' W 096°02'0 0.1
2017-Nov-18 08:24N 19°09' W 096°02'0 0.0
2017-Nov-18 07:54N 19°09' W 096°02'0 0.0
2017-Nov-18 07:30N 19°09' W 096°02'0 0.0
2017-Nov-18 07:00N 19°09' W 096°02'0 0.0
2017-Nov-18 06:30N 19°09' W 096°02'0 0.0
2017-Nov-18 06:00N 19°09' W 096°02'0 0.0
2017-Nov-18 05:24N 19°09' W 096°02'0 0.0
2017-Nov-18 04:54N 19°09' W 096°02'0 0.0
2017-Nov-18 04:30N 19°09' W 096°02'0 0.0
2017-Nov-18 04:00N 19°09' W 096°02'0 0.0
2017-Nov-18 03:30N 19°09' W 096°02'0 0.0
2017-Nov-18 02:56N 19°09' W 096°02'0 0.0
2017-Nov-18 02:26N 19°09' W 096°02'0 0.0
2017-Nov-18 01:56N 19°09' W 096°02'0 0.0
2017-Nov-18 01:26N 19°09' W 096°02'0 0.0
2017-Nov-18 00:50N 19°09' W 096°02'0 0.0
2017-Nov-18 00:14N 19°09' W 096°02'0 0.1
2017-Nov-17 23:56N 19°09' W 096°02'0 0.0
2017-Nov-17 23:26N 19°09' W 096°02'0 0.0
2017-Nov-17 22:50N 19°09' W 096°02'0 0.0
2017-Nov-17 22:26N 19°09' W 096°02'0 0.0
2017-Nov-17 21:56N 19°09' W 096°02'0 0.1
2017-Nov-17 21:26N 19°09' W 096°02'0 0.1
2017-Nov-17 20:56N 19°09' W 096°02'0 0.0
2017-Nov-17 20:26N 19°09' W 096°02'0 0.0
2017-Nov-17 19:56N 19°09' W 096°02'0 0.0
2017-Nov-17 19:26N 19°09' W 096°02'0 0.0
2017-Nov-17 18:56N 19°09' W 096°02'0 0.0
2017-Nov-17 18:20N 19°09' W 096°02'0 0.0
2017-Nov-17 17:51N 19°09' W 096°02'0 0.0
2017-Nov-17 17:21N 19°09' W 096°02'0 0.0
2017-Nov-17 16:45N 19°09' W 096°02'0 0.0
2017-Nov-17 16:27N 19°09' W 096°02'0 0.0
2017-Nov-17 15:57N 19°09' W 096°02'0 0.0
2017-Nov-17 15:15N 19°09' W 096°02'0 0.0
2017-Nov-17 14:51N 19°09' W 096°02'0 0.0
2017-Nov-17 14:27N 19°09' W 096°02'0 0.0
2017-Nov-17 13:51N 19°09' W 096°02'0 0.0
2017-Nov-17 13:27N 19°09' W 096°02'0 0.0
2017-Nov-17 12:57N 19°09' W 096°02'0 0.0
2017-Nov-17 12:27N 19°09' W 096°02'0 0.0
2017-Nov-17 11:57N 19°09' W 096°02'0 0.0
2017-Nov-17 11:27N 19°09' W 096°02'0 0.0
2017-Nov-17 10:51N 19°09' W 096°02'0 0.0
2017-Nov-17 10:08N 19°09' W 096°02'0 0.0
2017-Nov-17 09:56N 19°09' W 096°02'0 0.0
2017-Nov-17 09:26N 19°09' W 096°02'0 0.0
2017-Nov-17 08:56N 19°09' W 096°02'0 0.0
2017-Nov-17 08:26N 19°09' W 096°02'0 0.0
2017-Nov-17 07:58N 19°09' W 096°02'0 0.0
2017-Nov-17 07:16N 19°09' W 096°02'0 0.0
2017-Nov-17 06:46N 19°09' W 096°02'0 0.0
2017-Nov-17 06:28N 19°09' W 096°02'0 0.0
2017-Nov-17 05:58N 19°09' W 096°02'0 0.0
2017-Nov-17 05:28N 19°09' W 096°02'0 0.0
2017-Nov-17 05:00N 19°09' W 096°02'0 0.0
2017-Nov-17 04:30N 19°09' W 096°02'0 0.0
2017-Nov-17 04:00N 19°09' W 096°02'0 0.0
2017-Nov-17 03:30N 19°09' W 096°02'0 0.0
2017-Nov-17 03:00N 19°09' W 096°02'0 0.0
2017-Nov-17 02:30N 19°09' W 096°02'0 0.0
2017-Nov-17 02:00N 19°09' W 096°02'0 0.0
2017-Nov-17 01:28N 19°09' W 096°02'0 0.0
2017-Nov-17 00:58N 19°09' W 096°02'0 0.0
2017-Nov-17 00:22N 19°09' W 096°02'0 0.0
2017-Nov-16 22:14N 19°09' W 096°02'0 0.1
2017-Nov-16 21:15N 19°09' W 096°02'0 0.1
2017-Nov-16 21:01N 19°09' W 096°02'3 5.4
2017-Nov-16 20:29N 19°11' W 096°00'510.0
2017-Nov-16 20:01N 19°16' W 096°00'510.2
2017-Nov-16 19:30N 19°21' W 095°60'510.7
2017-Nov-16 19:00N 19°26' W 095°58'  
2017-Nov-14 06:03N 29°21' W 094°47'0 8.9
2017-Nov-14 06:01N 29°21' W 094°47'6 8.9
2017-Nov-14 05:23N 29°26' W 094°50'4 9.1
2017-Nov-14 05:00N 29°30' W 094°52'5 9.2
2017-Nov-14 04:31N 29°33' W 094°55'5 9.4
2017-Nov-14 04:00N 29°37' W 094°58'5 9.2
2017-Nov-14 03:30N 29°42' W 094°60'4 7.1
2017-Nov-14 03:01N 29°44' W 095°03'3 5.6
2017-Nov-14 02:30N 29°45' W 095°06'1 2.2
2017-Nov-14 01:55N 29°44' W 095°07'0 0.0
2017-Nov-14 01:28N 29°44' W 095°07'0 0.0
2017-Nov-14 00:59N 29°44' W 095°07'0 0.0
2017-Nov-14 00:29N 29°44' W 095°07'0 0.0
2017-Nov-13 23:59N 29°44' W 095°07'0 0.0
2017-Nov-13 23:29N 29°44' W 095°07'0 0.0
2017-Nov-13 22:58N 29°44' W 095°07'0 0.0
2017-Nov-13 22:28N 29°44' W 095°07'0 0.0
2017-Nov-13 21:58N 29°44' W 095°07'0 0.0
2017-Nov-13 02:00N 29°44' W 095°07'0 0.0
2017-Nov-13 01:30N 29°44' W 095°07'0 0.0
2017-Nov-13 01:00N 29°44' W 095°07'0 0.0
2017-Nov-13 00:30N 29°44' W 095°07'0 0.0
2017-Nov-13 00:00N 29°44' W 095°07'0 0.0
2017-Nov-12 23:18N 29°44' W 095°07'0 0.1
2017-Nov-12 23:00N 29°44' W 095°07'0 0.0
2017-Nov-12 22:30N 29°44' W 095°07'0 0.0
2017-Nov-12 21:56N 29°44' W 095°07'0 0.0
2017-Nov-12 21:29N 29°44' W 095°07'0 0.0
2017-Nov-12 20:59N 29°44' W 095°07'0 0.0
2017-Nov-12 20:28N 29°44' W 095°07'0 0.0
2017-Nov-12 19:55N 29°44' W 095°07'0 0.0
2017-Nov-12 19:28N 29°44' W 095°07'0 0.0
2017-Nov-12 19:00N 29°44' W 095°07'0 0.0
2017-Nov-12 18:30N 29°44' W 095°07'0 0.0
2017-Nov-12 18:00N 29°44' W 095°07'0 0.0
2017-Nov-12 17:28N 29°44' W 095°07'0 0.0
2017-Nov-12 16:55N 29°44' W 095°07'0 0.0
2017-Nov-12 16:25N 29°44' W 095°07'0 0.5
2017-Nov-12 15:56N 29°45' W 095°07'0 0.5
2017-Nov-12 15:25N 29°44' W 095°07'0 0.0
2017-Nov-12 14:37N 29°44' W 095°07'0 0.0
2017-Nov-12 14:28N 29°44' W 095°07'0 0.0
2017-Nov-12 13:58N 29°44' W 095°07'0 0.0
2017-Nov-12 13:28N 29°44' W 095°07'0 0.0
2017-Nov-12 12:58N 29°44' W 095°07'0 0.0
2017-Nov-12 12:28N 29°44' W 095°07'0 0.0
2017-Nov-12 11:55N 29°44' W 095°07'0 0.0
2017-Nov-12 11:25N 29°44' W 095°07'0 0.0
2017-Nov-12 10:58N 29°44' W 095°07'0 0.0
2017-Nov-12 10:28N 29°44' W 095°07'0 0.0
2017-Nov-12 10:00N 29°44' W 095°07'0 0.0
2017-Nov-12 09:30N 29°44' W 095°07'0 0.4
2017-Nov-12 09:00N 29°44' W 095°07'2 4.9
2017-Nov-12 08:30N 29°45' W 095°04'4 7.5
2017-Nov-12 08:00N 29°42' W 095°01'5 9.6
2017-Nov-12 07:30N 29°39' W 094°58'510.9
2017-Nov-12 07:00N 29°34' W 094°55'611.5
2017-Nov-12 06:30N 29°29' W 094°51'712.5
2017-Nov-12 05:55N 29°22' W 094°48'  
Track history (hours):
 
Tides and Currents Weather Stations Pressure Air Temp Water Temp Dewpoint Dewpoint Depression Visibility Wind Speed Wind Dir Waves Ship Positions

Ubc Bremen

Last reported at 2017-Nov-20 00:30 UTC. Time now 2017-Nov-22 05:31 UTC.
Position N 19°17' W 095°48'.

Length 154 m; draft 8.8 m.

Type: Cargo ship. MMSI: 21260200.

Date/timePositionNaut miles runAvg speedWind from/ knotsBaromVisibWave heightAir tempDewpointWater temp
2017-Nov-20 00:30N 19°17' W 095°48'1 2.4
2017-Nov-20 00:00N 19°17' W 095°47'1 2.6
2017-Nov-19 23:30N 19°17' W 095°45'1 2.9
2017-Nov-19 23:00N 19°17' W 095°44'3 1.5
2017-Nov-19 20:45N 19°17' W 095°47'1 2.5
2017-Nov-19 20:18N 19°17' W 095°48'1 2.4
2017-Nov-19 20:00N 19°18' W 095°48'1 1.6
2017-Nov-19 19:30N 19°19' W 095°49'1 2.5
2017-Nov-19 19:00N 19°18' W 095°50'1 1.6
2017-Nov-19 18:30N 19°19' W 095°50'1 1.3
2017-Nov-19 18:00N 19°19' W 095°51'4 8.3
2017-Nov-19 17:30N 19°19' W 095°55'4 7.3
2017-Nov-19 17:00N 19°16' W 095°57'4 8.7
2017-Nov-19 16:30N 19°12' W 095°60'4 8.2
2017-Nov-19 16:00N 19°09' W 096°02'0 0.5
2017-Nov-19 15:26N 19°09' W 096°02'0 0.0
2017-Nov-19 14:50N 19°09' W 096°02'0 0.0
2017-Nov-19 14:26N 19°09' W 096°03'0 0.0
2017-Nov-19 13:44N 19°09' W 096°03'0 0.0
2017-Nov-19 13:26N 19°09' W 096°03'0 0.0
2017-Nov-19 12:55N 19°09' W 096°03'0 0.0
2017-Nov-19 12:19N 19°09' W 096°03'0 0.1
2017-Nov-19 11:55N 19°09' W 096°03'0 0.0
2017-Nov-19 11:19N 19°09' W 096°02'0 0.0
2017-Nov-19 10:55N 19°09' W 096°02'0 0.0
2017-Nov-19 10:25N 19°09' W 096°02'0 0.0
2017-Nov-19 09:55N 19°09' W 096°02'0 0.0
2017-Nov-19 09:25N 19°09' W 096°02'0 0.0
2017-Nov-19 09:01N 19°09' W 096°02'0 0.1
2017-Nov-19 08:25N 19°09' W 096°02'0 0.1
2017-Nov-19 08:01N 19°09' W 096°02'0 0.0
2017-Nov-19 07:30N 19°09' W 096°02'0 0.0
2017-Nov-19 07:01N 19°09' W 096°02'0 0.0
2017-Nov-19 06:25N 19°09' W 096°02'0 0.0
2017-Nov-19 06:01N 19°09' W 096°02'0 0.0
2017-Nov-19 05:30N 19°09' W 096°02'0 0.0
2017-Nov-19 05:00N 19°09' W 096°02'0 0.0
2017-Nov-19 04:30N 19°09' W 096°02'0 0.0
2017-Nov-19 04:00N 19°09' W 096°02'0 0.0
2017-Nov-19 02:50N 19°09' W 096°02'0 0.0
2017-Nov-19 02:14N 19°09' W 096°02'0 0.0
2017-Nov-19 01:43N 19°09' W 096°02'0 0.0
2017-Nov-19 01:22N 19°09' W 096°02'0 0.0
2017-Nov-19 00:49N 19°09' W 096°02'0 0.0
2017-Nov-19 00:25N 19°09' W 096°02'0 0.0
2017-Nov-18 23:55N 19°09' W 096°02'0 0.0
2017-Nov-18 23:25N 19°09' W 096°02'0 0.0
2017-Nov-18 22:49N 19°09' W 096°02'0 0.0
2017-Nov-18 22:25N 19°09' W 096°02'0 0.0
2017-Nov-18 21:55N 19°09' W 096°02'0 0.0
2017-Nov-18 21:25N 19°09' W 096°02'0 0.0
2017-Nov-18 20:49N 19°09' W 096°02'0 0.0
2017-Nov-18 20:07N 19°09' W 096°02'0 0.0
2017-Nov-18 19:49N 19°09' W 096°02'0 0.0
2017-Nov-18 19:25N 19°09' W 096°02'0 0.1
2017-Nov-18 18:49N 19°09' W 096°02'0 0.0
2017-Nov-18 18:25N 19°09' W 096°02'0 0.0
2017-Nov-18 17:55N 19°09' W 096°02'0 0.0
2017-Nov-18 17:25N 19°09' W 096°02'0 0.0
2017-Nov-18 16:55N 19°09' W 096°02'0 0.0
2017-Nov-18 16:30N 19°09' W 096°02'0 0.0
2017-Nov-18 15:58N 19°09' W 096°02'0 0.0
2017-Nov-18 15:18N 19°09' W 096°02'0 0.0
2017-Nov-18 15:00N 19°09' W 096°02'0 0.1
2017-Nov-18 14:30N 19°09' W 096°02'0 0.1
2017-Nov-18 13:58N 19°09' W 096°02'0 0.1
2017-Nov-18 13:06N 19°09' W 096°02'0 0.1
2017-Nov-18 12:54N 19°09' W 096°02'0 0.0
2017-Nov-18 12:12N 19°09' W 096°02'0 0.1
2017-Nov-18 11:54N 19°09' W 096°02'0 0.2
2017-Nov-18 11:24N 19°09' W 096°02'0 0.1
2017-Nov-18 11:00N 19°09' W 096°02'0 0.0
2017-Nov-18 10:30N 19°09' W 096°02'0 0.0
2017-Nov-18 09:54N 19°09' W 096°02'0 0.1
2017-Nov-18 09:24N 19°09' W 096°02'0 0.1
2017-Nov-18 09:00N 19°09' W 096°02'0 0.1
2017-Nov-18 08:24N 19°09' W 096°02'0 0.0
2017-Nov-18 07:54N 19°09' W 096°02'0 0.0
2017-Nov-18 07:30N 19°09' W 096°02'0 0.0
2017-Nov-18 07:00N 19°09' W 096°02'0 0.0
2017-Nov-18 06:30N 19°09' W 096°02'0 0.0
2017-Nov-18 06:00N 19°09' W 096°02'0 0.0
2017-Nov-18 05:24N 19°09' W 096°02'0 0.0
2017-Nov-18 04:54N 19°09' W 096°02'0 0.0
2017-Nov-18 04:30N 19°09' W 096°02'0 0.0
2017-Nov-18 04:00N 19°09' W 096°02'0 0.0
2017-Nov-18 03:30N 19°09' W 096°02'0 0.0
2017-Nov-18 02:56N 19°09' W 096°02'0 0.0
2017-Nov-18 02:26N 19°09' W 096°02'0 0.0
2017-Nov-18 01:56N 19°09' W 096°02'0 0.0
2017-Nov-18 01:26N 19°09' W 096°02'0 0.0
2017-Nov-18 00:50N 19°09' W 096°02'0 0.0
2017-Nov-18 00:14N 19°09' W 096°02'0 0.1
2017-Nov-17 23:56N 19°09' W 096°02'0 0.0
2017-Nov-17 23:26N 19°09' W 096°02'0 0.0
2017-Nov-17 22:50N 19°09' W 096°02'0 0.0
2017-Nov-17 22:26N 19°09' W 096°02'0 0.0
2017-Nov-17 21:56N 19°09' W 096°02'0 0.1
2017-Nov-17 21:26N 19°09' W 096°02'0 0.1
2017-Nov-17 20:56N 19°09' W 096°02'0 0.0
2017-Nov-17 20:26N 19°09' W 096°02'0 0.0
2017-Nov-17 19:56N 19°09' W 096°02'0 0.0
2017-Nov-17 19:26N 19°09' W 096°02'0 0.0
2017-Nov-17 18:56N 19°09' W 096°02'0 0.0
2017-Nov-17 18:20N 19°09' W 096°02'0 0.0
2017-Nov-17 17:51N 19°09' W 096°02'0 0.0
2017-Nov-17 17:21N 19°09' W 096°02'0 0.0
2017-Nov-17 16:45N 19°09' W 096°02'0 0.0
2017-Nov-17 16:27N 19°09' W 096°02'0 0.0
2017-Nov-17 15:57N 19°09' W 096°02'0 0.0
2017-Nov-17 15:15N 19°09' W 096°02'0 0.0
2017-Nov-17 14:51N 19°09' W 096°02'0 0.0
2017-Nov-17 14:27N 19°09' W 096°02'0 0.0
2017-Nov-17 13:51N 19°09' W 096°02'0 0.0
2017-Nov-17 13:27N 19°09' W 096°02'0 0.0
2017-Nov-17 12:57N 19°09' W 096°02'0 0.0
2017-Nov-17 12:27N 19°09' W 096°02'0 0.0
2017-Nov-17 11:57N 19°09' W 096°02'0 0.0
2017-Nov-17 11:27N 19°09' W 096°02'0 0.0
2017-Nov-17 10:51N 19°09' W 096°02'0 0.0
2017-Nov-17 10:08N 19°09' W 096°02'0 0.0
2017-Nov-17 09:56N 19°09' W 096°02'0 0.0
2017-Nov-17 09:26N 19°09' W 096°02'0 0.0
2017-Nov-17 08:56N 19°09' W 096°02'0 0.0
2017-Nov-17 08:26N 19°09' W 096°02'0 0.0
2017-Nov-17 07:58N 19°09' W 096°02'0 0.0
2017-Nov-17 07:16N 19°09' W 096°02'0 0.0
2017-Nov-17 06:46N 19°09' W 096°02'0 0.0
2017-Nov-17 06:28N 19°09' W 096°02'0 0.0
2017-Nov-17 05:58N 19°09' W 096°02'0 0.0
2017-Nov-17 05:28N 19°09' W 096°02'0 0.0
2017-Nov-17 05:00N 19°09' W 096°02'0 0.0
2017-Nov-17 04:30N 19°09' W 096°02'0 0.0
2017-Nov-17 04:00N 19°09' W 096°02'0 0.0
2017-Nov-17 03:30N 19°09' W 096°02'0 0.0
2017-Nov-17 03:00N 19°09' W 096°02'0 0.0
2017-Nov-17 02:30N 19°09' W 096°02'0 0.0
2017-Nov-17 02:00N 19°09' W 096°02'0 0.0
2017-Nov-17 01:28N 19°09' W 096°02'0 0.0
2017-Nov-17 00:58N 19°09' W 096°02'0 0.0
2017-Nov-17 00:22N 19°09' W 096°02'0 0.0
2017-Nov-16 22:14N 19°09' W 096°02'0 0.1
2017-Nov-16 21:15N 19°09' W 096°02'0 0.1
2017-Nov-16 21:01N 19°09' W 096°02'3 5.4
2017-Nov-16 20:29N 19°11' W 096°00'510.0
2017-Nov-16 20:01N 19°16' W 096°00'510.2
2017-Nov-16 19:30N 19°21' W 095°60'510.7
2017-Nov-16 19:00N 19°26' W 095°58'  
2017-Nov-14 06:03N 29°21' W 094°47'0 8.9
2017-Nov-14 06:01N 29°21' W 094°47'6 8.9
2017-Nov-14 05:23N 29°26' W 094°50'4 9.1
2017-Nov-14 05:00N 29°30' W 094°52'5 9.2
2017-Nov-14 04:31N 29°33' W 094°55'5 9.4
2017-Nov-14 04:00N 29°37' W 094°58'5 9.2
2017-Nov-14 03:30N 29°42' W 094°60'4 7.1
2017-Nov-14 03:01N 29°44' W 095°03'3 5.6
2017-Nov-14 02:30N 29°45' W 095°06'1 2.2
2017-Nov-14 01:55N 29°44' W 095°07'0 0.0
2017-Nov-14 01:28N 29°44' W 095°07'0 0.0
2017-Nov-14 00:59N 29°44' W 095°07'0 0.0
2017-Nov-14 00:29N 29°44' W 095°07'0 0.0
2017-Nov-13 23:59N 29°44' W 095°07'0 0.0
2017-Nov-13 23:29N 29°44' W 095°07'0 0.0
2017-Nov-13 22:58N 29°44' W 095°07'0 0.0
2017-Nov-13 22:28N 29°44' W 095°07'0 0.0
2017-Nov-13 21:58N 29°44' W 095°07'0 0.0
2017-Nov-13 02:00N 29°44' W 095°07'0 0.0
2017-Nov-13 01:30N 29°44' W 095°07'0 0.0
2017-Nov-13 01:00N 29°44' W 095°07'0 0.0
2017-Nov-13 00:30N 29°44' W 095°07'0 0.0
2017-Nov-13 00:00N 29°44' W 095°07'0 0.0
2017-Nov-12 23:18N 29°44' W 095°07'0 0.1
2017-Nov-12 23:00N 29°44' W 095°07'0 0.0
2017-Nov-12 22:30N 29°44' W 095°07'0 0.0
2017-Nov-12 21:56N 29°44' W 095°07'0 0.0
2017-Nov-12 21:29N 29°44' W 095°07'0 0.0
2017-Nov-12 20:59N 29°44' W 095°07'0 0.0
2017-Nov-12 20:28N 29°44' W 095°07'0 0.0
2017-Nov-12 19:55N 29°44' W 095°07'0 0.0
2017-Nov-12 19:28N 29°44' W 095°07'0 0.0
2017-Nov-12 19:00N 29°44' W 095°07'0 0.0
2017-Nov-12 18:30N 29°44' W 095°07'0 0.0
2017-Nov-12 18:00N 29°44' W 095°07'0 0.0
2017-Nov-12 17:28N 29°44' W 095°07'0 0.0
2017-Nov-12 16:55N 29°44' W 095°07'0 0.0
2017-Nov-12 16:25N 29°44' W 095°07'0 0.5
2017-Nov-12 15:56N 29°45' W 095°07'0 0.5
2017-Nov-12 15:25N 29°44' W 095°07'0 0.0
2017-Nov-12 14:37N 29°44' W 095°07'0 0.0
2017-Nov-12 14:28N 29°44' W 095°07'0 0.0
2017-Nov-12 13:58N 29°44' W 095°07'0 0.0
2017-Nov-12 13:28N 29°44' W 095°07'0 0.0
2017-Nov-12 12:58N 29°44' W 095°07'0 0.0
2017-Nov-12 12:28N 29°44' W 095°07'0 0.0
2017-Nov-12 11:55N 29°44' W 095°07'0 0.0
2017-Nov-12 11:25N 29°44' W 095°07'0 0.0
2017-Nov-12 10:58N 29°44' W 095°07'0 0.0
2017-Nov-12 10:28N 29°44' W 095°07'0 0.0
2017-Nov-12 10:00N 29°44' W 095°07'0 0.0
2017-Nov-12 09:30N 29°44' W 095°07'0 0.4
2017-Nov-12 09:00N 29°44' W 095°07'2 4.9
2017-Nov-12 08:30N 29°45' W 095°04'4 7.5
2017-Nov-12 08:00N 29°42' W 095°01'5 9.6
2017-Nov-12 07:30N 29°39' W 094°58'510.9
2017-Nov-12 07:00N 29°34' W 094°55'611.5
2017-Nov-12 06:30N 29°29' W 094°51'712.5
2017-Nov-12 05:55N 29°22' W 094°48'  

Dump ship's entire track history